Terminal Aerodrome Forecast
Issued by NWS

Home | Current Version | Previous Version | Text Only | Print | Product List | Glossary On
Versions: 1 2 3 4 5 6 7 8 9 10 11 12
000
FTUS46 KMFR 281126
TAFRBG
TAF
KRBG 281126Z 2812/2912 35005KT P6SM SKC
     FM281300 VRB03KT P6SM OVC008
     FM281800 VRB03KT P6SM SKC
     FM282200 36007KT P6SM SCT090=

USA.gov is the U.S. government's official web portal to all federal, state and local government web resources and services.